METAR Data
IDs: Format: Raw Decoded Include TAF

Data at: 0125 UTC 20 Sep 2020

METAR for:K6B9 (Skaneateles Arpt, NY, US)
Text:K6B9 200115Z AUTO 00000KT 10SM CLR 04/02 A3042 RMK AO2
Temperature: 4.0°C ( 39°F)
Dewpoint: 2.0°C ( 36°F) [RH = 87%]
Pressure (altimeter):30.42 inches Hg (1030.2 mb)
Winds:calm
Visibility:10 or more sm (16+ km)
Ceiling:at least 12,000 feet AGL
Clouds:sky clear below 12,000 feet AGL
QC Flag:automated observation with no human augmentation
Text:K6B9 200055Z AUTO 00000KT 10SM CLR 05/02 A3042 RMK AO2
Temperature: 5.0°C ( 41°F)
Dewpoint: 2.0°C ( 36°F) [RH = 81%]
Pressure (altimeter):30.42 inches Hg (1030.2 mb)
Winds:calm
Visibility:10 or more sm (16+ km)
Ceiling:at least 12,000 feet AGL
Clouds:sky clear below 12,000 feet AGL
QC Flag:automated observation with no human augmentation
Text:K6B9 200035Z AUTO 00000KT 10SM CLR 05/03 A3042 RMK AO2
Temperature: 5.0°C ( 41°F)
Dewpoint: 3.0°C ( 37°F) [RH = 87%]
Pressure (altimeter):30.42 inches Hg (1030.2 mb)
Winds:calm
Visibility:10 or more sm (16+ km)
Ceiling:at least 12,000 feet AGL
Clouds:sky clear below 12,000 feet AGL
QC Flag:automated observation with no human augmentation
Text:K6B9 200015Z AUTO 00000KT 10SM CLR 06/03 A3041 RMK AO2
Temperature: 6.0°C ( 43°F)
Dewpoint: 3.0°C ( 37°F) [RH = 81%]
Pressure (altimeter):30.41 inches Hg (1029.9 mb)
Winds:calm
Visibility:10 or more sm (16+ km)
Ceiling:at least 12,000 feet AGL
Clouds:sky clear below 12,000 feet AGL
QC Flag:automated observation with no human augmentation
Text:K6B9 192355Z AUTO 00000KT 10SM CLR 06/02 A3041 RMK AO2
Temperature: 6.0°C ( 43°F)
Dewpoint: 2.0°C ( 36°F) [RH = 75%]
Pressure (altimeter):30.41 inches Hg (1029.9 mb)
Winds:calm
Visibility:10 or more sm (16+ km)
Ceiling:at least 12,000 feet AGL
Clouds:sky clear below 12,000 feet AGL
QC Flag:automated observation with no human augmentation
Text:K6B9 192335Z AUTO 00000KT 10SM CLR 07/02 A3040 RMK AO2
Temperature: 7.0°C ( 45°F)
Dewpoint: 2.0°C ( 36°F) [RH = 70%]
Pressure (altimeter):30.40 inches Hg (1029.5 mb)
Winds:calm
Visibility:10 or more sm (16+ km)
Ceiling:at least 12,000 feet AGL
Clouds:sky clear below 12,000 feet AGL
QC Flag:automated observation with no human augmentation
Text:K6B9 192315Z AUTO 00000KT 10SM CLR 08/02 A3040 RMK AO2
Temperature: 8.0°C ( 46°F)
Dewpoint: 2.0°C ( 36°F) [RH = 66%]
Pressure (altimeter):30.40 inches Hg (1029.5 mb)
Winds:calm
Visibility:10 or more sm (16+ km)
Ceiling:at least 12,000 feet AGL
Clouds:sky clear below 12,000 feet AGL
QC Flag:automated observation with no human augmentation
Text:K6B9 192255Z AUTO VRB03KT 10SM CLR 09/02 A3039 RMK AO2
Temperature: 9.0°C ( 48°F)
Dewpoint: 2.0°C ( 36°F) [RH = 61%]
Pressure (altimeter):30.39 inches Hg (1029.2 mb)
Winds:variable direction winds at 3 MPH (3 knots; 1.5 m/s)
Visibility:10 or more sm (16+ km)
Ceiling:at least 12,000 feet AGL
Clouds:sky clear below 12,000 feet AGL
QC Flag:automated observation with no human augmentation
Text:K6B9 192235Z AUTO VRB04KT 10SM CLR 10/02 A3039 RMK AO2
Temperature: 10.0°C ( 50°F)
Dewpoint: 2.0°C ( 36°F) [RH = 57%]
Pressure (altimeter):30.39 inches Hg (1029.2 mb)
Winds:variable direction winds at 5 MPH (4 knots; 2.1 m/s)
Visibility:10 or more sm (16+ km)
Ceiling:at least 12,000 feet AGL
Clouds:sky clear below 12,000 feet AGL
QC Flag:automated observation with no human augmentation
Text:K6B9 192215Z AUTO 35003KT 10SM CLR 11/02 A3039 RMK AO2
Temperature: 11.0°C ( 52°F)
Dewpoint: 2.0°C ( 36°F) [RH = 54%]
Pressure (altimeter):30.39 inches Hg (1029.2 mb)
Winds:from the N (350 degrees) at 3 MPH (3 knots; 1.5 m/s)
Visibility:10 or more sm (16+ km)
Ceiling:at least 12,000 feet AGL
Clouds:sky clear below 12,000 feet AGL
QC Flag:automated observation with no human augmentation
Text:K6B9 192155Z AUTO 35005KT 10SM CLR 11/02 A3038 RMK AO2
Temperature: 11.0°C ( 52°F)
Dewpoint: 2.0°C ( 36°F) [RH = 54%]
Pressure (altimeter):30.38 inches Hg (1028.9 mb)
Winds:from the N (350 degrees) at 6 MPH (5 knots; 2.6 m/s)
Visibility:10 or more sm (16+ km)
Ceiling:at least 12,000 feet AGL
Clouds:sky clear below 12,000 feet AGL
QC Flag:automated observation with no human augmentation
Text:K6B9 192135Z AUTO VRB06KT 10SM FEW048 12/01 A3038 RMK AO2
Temperature: 12.0°C ( 54°F)
Dewpoint: 1.0°C ( 34°F) [RH = 47%]
Pressure (altimeter):30.38 inches Hg (1028.9 mb)
Winds:variable direction winds at 7 MPH (6 knots; 3.1 m/s)
Visibility:10 or more sm (16+ km)
Ceiling:at least 12,000 feet AGL
Clouds: few clouds at 4800 feet AGL
QC Flag:automated observation with no human augmentation
Text:K6B9 192115Z AUTO 36008G15KT 10SM BKN048 12/01 A3037 RMK AO2
Temperature: 12.0°C ( 54°F)
Dewpoint: 1.0°C ( 34°F) [RH = 47%]
Pressure (altimeter):30.37 inches Hg (1028.5 mb)
Winds:from the N (360 degrees) at 9 MPH (8 knots; 4.1 m/s) gusting to 17 MPH (15 knots; 7.7 m/s)
Visibility:10 or more sm (16+ km)
Ceiling:4800 feet AGL
Clouds: broken clouds at 4800 feet AGL
QC Flag:automated observation with no human augmentation
Text:K6B9 192055Z AUTO VRB06G11KT 10SM FEW047 12/02 A3037 RMK AO2
Temperature: 12.0°C ( 54°F)
Dewpoint: 2.0°C ( 36°F) [RH = 50%]
Pressure (altimeter):30.37 inches Hg (1028.5 mb)
Winds:variable direction winds at 7 MPH (6 knots; 3.1 m/s) gusting to 13 MPH (11 knots; 5.7 m/s)
Visibility:10 or more sm (16+ km)
Ceiling:at least 12,000 feet AGL
Clouds: few clouds at 4700 feet AGL
QC Flag:automated observation with no human augmentation
Text:K6B9 192035Z AUTO VRB04G10KT 10SM BKN046 13/02 A3037 RMK AO2
Temperature: 13.0°C ( 55°F)
Dewpoint: 2.0°C ( 36°F) [RH = 47%]
Pressure (altimeter):30.37 inches Hg (1028.5 mb)
Winds:variable direction winds at 5 MPH (4 knots; 2.1 m/s) gusting to 12 MPH (10 knots; 5.1 m/s)
Visibility:10 or more sm (16+ km)
Ceiling:4600 feet AGL
Clouds: broken clouds at 4600 feet AGL
QC Flag:automated observation with no human augmentation
Text:K6B9 192015Z AUTO 02007KT 350V050 10SM BKN046 13/03 A3037 RMK AO2
Temperature: 13.0°C ( 55°F)
Dewpoint: 3.0°C ( 37°F) [RH = 51%]
Pressure (altimeter):30.37 inches Hg (1028.5 mb)
Winds:from the NNE (20 degrees) at 8 MPH (7 knots; 3.6 m/s)
Visibility:10 or more sm (16+ km)
Ceiling:4600 feet AGL
Clouds: broken clouds at 4600 feet AGL
QC Flag:automated observation with no human augmentation
Text:K6B9 191955Z AUTO 03008KT 360V060 10SM SCT049 13/03 A3037 RMK AO2
Temperature: 13.0°C ( 55°F)
Dewpoint: 3.0°C ( 37°F) [RH = 51%]
Pressure (altimeter):30.37 inches Hg (1028.5 mb)
Winds:from the NNE (30 degrees) at 9 MPH (8 knots; 4.1 m/s)
Visibility:10 or more sm (16+ km)
Ceiling:at least 12,000 feet AGL
Clouds: scattered clouds at 4900 feet AGL
QC Flag:automated observation with no human augmentation
Text:K6B9 191935Z AUTO VRB05G11KT 10SM BKN049 13/02 A3037 RMK AO2
Temperature: 13.0°C ( 55°F)
Dewpoint: 2.0°C ( 36°F) [RH = 47%]
Pressure (altimeter):30.37 inches Hg (1028.5 mb)
Winds:variable direction winds at 6 MPH (5 knots; 2.6 m/s) gusting to 13 MPH (11 knots; 5.7 m/s)
Visibility:10 or more sm (16+ km)
Ceiling:4900 feet AGL
Clouds: broken clouds at 4900 feet AGL
QC Flag:automated observation with no human augmentation
Text:K6B9 191915Z AUTO VRB05G11KT 10SM FEW050 13/01 A3037 RMK AO2
Temperature: 13.0°C ( 55°F)
Dewpoint: 1.0°C ( 34°F) [RH = 44%]
Pressure (altimeter):30.37 inches Hg (1028.5 mb)
Winds:variable direction winds at 6 MPH (5 knots; 2.6 m/s) gusting to 13 MPH (11 knots; 5.7 m/s)
Visibility:10 or more sm (16+ km)
Ceiling:at least 12,000 feet AGL
Clouds: few clouds at 5000 feet AGL
QC Flag:automated observation with no human augmentation
Text:K6B9 191855Z AUTO VRB05KT 10SM BKN049 13/01 A3038 RMK AO2
Temperature: 13.0°C ( 55°F)
Dewpoint: 1.0°C ( 34°F) [RH = 44%]
Pressure (altimeter):30.38 inches Hg (1028.9 mb)
Winds:variable direction winds at 6 MPH (5 knots; 2.6 m/s)
Visibility:10 or more sm (16+ km)
Ceiling:4900 feet AGL
Clouds: broken clouds at 4900 feet AGL
QC Flag:automated observation with no human augmentation
Text:K6B9 191835Z AUTO 35006G14KT 10SM BKN049 13/01 A3038 RMK AO2
Temperature: 13.0°C ( 55°F)
Dewpoint: 1.0°C ( 34°F) [RH = 44%]
Pressure (altimeter):30.38 inches Hg (1028.9 mb)
Winds:from the N (350 degrees) at 7 MPH (6 knots; 3.1 m/s) gusting to 16 MPH (14 knots; 7.2 m/s)
Visibility:10 or more sm (16+ km)
Ceiling:4900 feet AGL
Clouds: broken clouds at 4900 feet AGL
QC Flag:automated observation with no human augmentation
Text:K6B9 191815Z AUTO VRB04G10KT 10SM FEW050 13/01 A3038 RMK AO2
Temperature: 13.0°C ( 55°F)
Dewpoint: 1.0°C ( 34°F) [RH = 44%]
Pressure (altimeter):30.38 inches Hg (1028.9 mb)
Winds:variable direction winds at 5 MPH (4 knots; 2.1 m/s) gusting to 12 MPH (10 knots; 5.1 m/s)
Visibility:10 or more sm (16+ km)
Ceiling:at least 12,000 feet AGL
Clouds: few clouds at 5000 feet AGL
QC Flag:automated observation with no human augmentation
Text:K6B9 191755Z AUTO VRB05KT 10SM BKN049 12/01 A3039 RMK AO2
Temperature: 12.0°C ( 54°F)
Dewpoint: 1.0°C ( 34°F) [RH = 47%]
Pressure (altimeter):30.39 inches Hg (1029.2 mb)
Winds:variable direction winds at 6 MPH (5 knots; 2.6 m/s)
Visibility:10 or more sm (16+ km)
Ceiling:4900 feet AGL
Clouds: broken clouds at 4900 feet AGL
QC Flag:automated observation with no human augmentation
Text:K6B9 191735Z AUTO VRB06KT 10SM BKN048 13/02 A3040 RMK AO2
Temperature: 13.0°C ( 55°F)
Dewpoint: 2.0°C ( 36°F) [RH = 47%]
Pressure (altimeter):30.40 inches Hg (1029.5 mb)
Winds:variable direction winds at 7 MPH (6 knots; 3.1 m/s)
Visibility:10 or more sm (16+ km)
Ceiling:4800 feet AGL
Clouds: broken clouds at 4800 feet AGL
QC Flag:automated observation with no human augmentation
Text:K6B9 191715Z AUTO 36007KT 330V030 10SM FEW046 12/00 A3040 RMK AO2
Temperature: 12.0°C ( 54°F)
Dewpoint: 0.0°C ( 32°F) [RH = 44%]
Pressure (altimeter):30.40 inches Hg (1029.5 mb)
Winds:from the N (360 degrees) at 8 MPH (7 knots; 3.6 m/s)
Visibility:10 or more sm (16+ km)
Ceiling:at least 12,000 feet AGL
Clouds: few clouds at 4600 feet AGL
QC Flag:automated observation with no human augmentation
Text:K6B9 191655Z AUTO VRB03KT 10SM SCT046 12/01 A3041 RMK AO2
Temperature: 12.0°C ( 54°F)
Dewpoint: 1.0°C ( 34°F) [RH = 47%]
Pressure (altimeter):30.41 inches Hg (1029.9 mb)
Winds:variable direction winds at 3 MPH (3 knots; 1.5 m/s)
Visibility:10 or more sm (16+ km)
Ceiling:at least 12,000 feet AGL
Clouds: scattered clouds at 4600 feet AGL
QC Flag:automated observation with no human augmentation
Text:K6B9 191635Z AUTO 01007KT 340V040 10SM FEW046 12/01 A3041 RMK AO2
Temperature: 12.0°C ( 54°F)
Dewpoint: 1.0°C ( 34°F) [RH = 47%]
Pressure (altimeter):30.41 inches Hg (1029.9 mb)
Winds:from the N (10 degrees) at 8 MPH (7 knots; 3.6 m/s)
Visibility:10 or more sm (16+ km)
Ceiling:at least 12,000 feet AGL
Clouds: few clouds at 4600 feet AGL
QC Flag:automated observation with no human augmentation
Text:K6B9 191615Z AUTO VRB06KT 10SM SCT044 11/01 A3041 RMK AO2
Temperature: 11.0°C ( 52°F)
Dewpoint: 1.0°C ( 34°F) [RH = 50%]
Pressure (altimeter):30.41 inches Hg (1029.9 mb)
Winds:variable direction winds at 7 MPH (6 knots; 3.1 m/s)
Visibility:10 or more sm (16+ km)
Ceiling:at least 12,000 feet AGL
Clouds: scattered clouds at 4400 feet AGL
QC Flag:automated observation with no human augmentation
Text:K6B9 191555Z AUTO VRB03KT 10SM BKN043 11/01 A3042 RMK AO2
Temperature: 11.0°C ( 52°F)
Dewpoint: 1.0°C ( 34°F) [RH = 50%]
Pressure (altimeter):30.42 inches Hg (1030.2 mb)
Winds:variable direction winds at 3 MPH (3 knots; 1.5 m/s)
Visibility:10 or more sm (16+ km)
Ceiling:4300 feet AGL
Clouds: broken clouds at 4300 feet AGL
QC Flag:automated observation with no human augmentation
Text:K6B9 191535Z AUTO 01009KT 340V040 10SM BKN043 11/01 A3041 RMK AO2
Temperature: 11.0°C ( 52°F)
Dewpoint: 1.0°C ( 34°F) [RH = 50%]
Pressure (altimeter):30.41 inches Hg (1029.9 mb)
Winds:from the N (10 degrees) at 10 MPH (9 knots; 4.6 m/s)
Visibility:10 or more sm (16+ km)
Ceiling:4300 feet AGL
Clouds: broken clouds at 4300 feet AGL
QC Flag:automated observation with no human augmentation
Text:K6B9 191515Z AUTO VRB04G10KT 10SM BKN042 11/01 A3041 RMK AO2
Temperature: 11.0°C ( 52°F)
Dewpoint: 1.0°C ( 34°F) [RH = 50%]
Pressure (altimeter):30.41 inches Hg (1029.9 mb)
Winds:variable direction winds at 5 MPH (4 knots; 2.1 m/s) gusting to 12 MPH (10 knots; 5.1 m/s)
Visibility:10 or more sm (16+ km)
Ceiling:4200 feet AGL
Clouds: broken clouds at 4200 feet AGL
QC Flag:automated observation with no human augmentation
Text:K6B9 191455Z AUTO VRB06KT 10SM BKN042 11/01 A3041 RMK AO2
Temperature: 11.0°C ( 52°F)
Dewpoint: 1.0°C ( 34°F) [RH = 50%]
Pressure (altimeter):30.41 inches Hg (1029.9 mb)
Winds:variable direction winds at 7 MPH (6 knots; 3.1 m/s)
Visibility:10 or more sm (16+ km)
Ceiling:4200 feet AGL
Clouds: broken clouds at 4200 feet AGL
QC Flag:automated observation with no human augmentation
Text:K6B9 191435Z AUTO VRB05KT 10SM FEW043 10/01 A3041 RMK AO2
Temperature: 10.0°C ( 50°F)
Dewpoint: 1.0°C ( 34°F) [RH = 53%]
Pressure (altimeter):30.41 inches Hg (1029.9 mb)
Winds:variable direction winds at 6 MPH (5 knots; 2.6 m/s)
Visibility:10 or more sm (16+ km)
Ceiling:at least 12,000 feet AGL
Clouds: few clouds at 4300 feet AGL
QC Flag:automated observation with no human augmentation
Text:K6B9 191415Z AUTO 04007KT 10SM CLR 10/00 A3041 RMK AO2
Temperature: 10.0°C ( 50°F)
Dewpoint: 0.0°C ( 32°F) [RH = 50%]
Pressure (altimeter):30.41 inches Hg (1029.9 mb)
Winds:from the NE (40 degrees) at 8 MPH (7 knots; 3.6 m/s)
Visibility:10 or more sm (16+ km)
Ceiling:at least 12,000 feet AGL
Clouds:sky clear below 12,000 feet AGL
QC Flag:automated observation with no human augmentation
Text:K6B9 191355Z AUTO VRB04G10KT 10SM CLR 10/M01 A3041 RMK AO2
Temperature: 10.0°C ( 50°F)
Dewpoint: -1.0°C ( 30°F) [RH = 46%]
Pressure (altimeter):30.41 inches Hg (1029.9 mb)
Winds:variable direction winds at 5 MPH (4 knots; 2.1 m/s) gusting to 12 MPH (10 knots; 5.1 m/s)
Visibility:10 or more sm (16+ km)
Ceiling:at least 12,000 feet AGL
Clouds:sky clear below 12,000 feet AGL
QC Flag:automated observation with no human augmentation
Text:K6B9 191335Z AUTO 00000KT 10SM CLR 10/M02 A3040 RMK AO2
Temperature: 10.0°C ( 50°F)
Dewpoint: -2.0°C ( 28°F) [RH = 43%]
Pressure (altimeter):30.40 inches Hg (1029.5 mb)
Winds:calm
Visibility:10 or more sm (16+ km)
Ceiling:at least 12,000 feet AGL
Clouds:sky clear below 12,000 feet AGL
QC Flag:automated observation with no human augmentation